This is the latest recevied weather packets stored in our database for station/object 9W2GND-1. If no packets are shown the sender has not sent any weather packets the latest 1 day(s).
| Time | Temp. | Humidity | Pressure | Rain* | Wind** | Luminosity | Snow |
|---|---|---|---|---|---|---|---|
| 1778214221 | 31.11° C | 68% | 1013 hPa | - | - | - | - |
| 1778213321 | 31.11° C | 68% | 1013 hPa | - | - | - | - |
| 1778212421 | 30.56° C | 70% | 1013.3 hPa | - | - | - | - |
| 1778211521 | 30.56° C | 73% | 1013.5 hPa | - | - | - | - |
| 1778208880 | 28.89° C | 76% | 1013.7 hPa | - | - | - | - |
| 1778207960 | 28.89° C | 76% | 1013.7 hPa | - | - | - | - |
| 1778207920 | 28.89° C | 76% | 1013.7 hPa | - | - | - | - |
| 1778207020 | 28.33° C | 76% | 1013.7 hPa | - | - | - | - |
| 1778206120 | 28.89° C | 77% | 1013.6 hPa | - | - | - | - |
| 1778205220 | 28.89° C | 76% | 1013.4 hPa | - | - | - | - |
| 1778204320 | 28.89° C | 75% | 1013.5 hPa | - | - | - | - |
| 1778203420 | 30° C | 71% | 1013.4 hPa | - | - | - | - |
| 1778202520 | 30° C | 70% | 1012.8 hPa | - | - | - | - |
| 1778199922 | 29.44° C | 74% | 1012.3 hPa | - | - | - | - |
| 1778199022 | 28.89° C | 75% | 1011.9 hPa | - | - | - | - |
| 1778196322 | 28.89° C | 77% | 1011.4 hPa | - | - | - | - |
| 1778194522 | 28.89° C | 77% | 1010.7 hPa | - | - | - | - |
| 1778186421 | 28.89° C | 72% | 1009.8 hPa | - | - | - | - |
| 1778185521 | 28.89° C | 72% | 1010 hPa | - | - | - | - |
| 1778184621 | 29.44° C | 73% | 1010.2 hPa | - | - | - | - |
| 1778179220 | 29.44° C | 71% | 1011 hPa | - | - | - | - |
| 1778177420 | 30° C | 71% | 1011.3 hPa | - | - | - | - |
| 1778175620 | 30° C | 71% | 1011.7 hPa | - | - | - | - |
| 1778174720 | 29.44° C | 72% | 1011.6 hPa | - | - | - | - |
| 1778167519 | 30° C | 70% | 1012.1 hPa | - | - | - | - |
* Rain since midnight (hover to see other rain measurements)
** Current wind speed in m/s (hover to see current wind gust speed)